Smit Orleans — CFN5087 — position and weather

sailwx.info

Track history (hours):
 
Tides and Currents Weather Stations Pressure Air Temp Water Temp Dewpoint Dewpoint Depression Visibility Wind Speed Wind Dir Waves Ship Positions

Smit Orleans

Last reported at 2014-Oct-26 08:34 UTC. Time now 2014-Oct-26 09:35 UTC.
Position N 49°19' W 123°14'.

Length 29 m; draft 5.1 m.

Type: . MMSI: 316012721.

Date/timePositionNaut miles runAvg speedWind from/ knotsBaromVisibWave heightAir tempDewpointWater temp
2014-Oct-26 08:34N 49°19' W 123°14'9 9.1
2014-Oct-26 07:33N 49°28' W 123°17'1010.4
2014-Oct-26 06:33N 49°39' W 123°14'3 2.4
2014-Oct-26 05:31N 49°40' W 123°11'2 1.9
2014-Oct-26 04:33N 49°39' W 123°14'6 6.5
2014-Oct-26 03:33N 49°33' W 123°16'8 8.5
2014-Oct-26 02:33N 49°25' W 123°18'7 6.8
2014-Oct-26 01:33N 49°19' W 123°11'5 5.3
2014-Oct-26 00:34N 49°17' W 123°04'0 0.0
2014-Oct-25 23:34N 49°17' W 123°04'0 0.0
2014-Oct-25 22:33N 49°17' W 123°04'0 0.0
2014-Oct-25 21:33N 49°17' W 123°04'0 0.0
2014-Oct-25 20:34N 49°17' W 123°04'0 0.0
2014-Oct-25 19:33N 49°17' W 123°04'0 0.0
2014-Oct-25 18:34N 49°17' W 123°04'0 0.0
2014-Oct-25 17:34N 49°17' W 123°04'0 0.0
2014-Oct-25 16:33N 49°17' W 123°04'0 0.0
2014-Oct-25 15:34N 49°17' W 123°04'0 0.0
2014-Oct-25 14:33N 49°17' W 123°04'0 0.0
2014-Oct-25 13:33N 49°17' W 123°04'0 0.0
2014-Oct-25 12:33N 49°17' W 123°04'0 0.0
2014-Oct-25 11:33N 49°17' W 123°04'0 0.0
2014-Oct-25 10:34N 49°17' W 123°04'1 1.1
2014-Oct-25 09:33N 49°18' W 123°02'1 0.6
2014-Oct-25 08:34N 49°18' W 123°03'2 1.7
2014-Oct-25 07:34N 49°18' W 123°05'1 0.9
2014-Oct-25 06:34N 49°17' W 123°04'2 1.6
2014-Oct-25 05:34N 49°18' W 123°07'2 2.0
2014-Oct-25 04:34N 49°17' W 123°04'0 0.0
2014-Oct-25 03:34N 49°17' W 123°04'0 0.0
2014-Oct-25 02:34N 49°17' W 123°04'0 0.0
2014-Oct-25 01:33N 49°17' W 123°04'2 2.2
2014-Oct-25 00:34N 49°18' W 123°00'2 2.2
2014-Oct-24 23:34N 49°17' W 123°04'0 0.0
2014-Oct-24 22:33N 49°17' W 123°04'0 0.0
2014-Oct-24 21:34N 49°17' W 123°04'0 0.0
2014-Oct-24 20:34N 49°17' W 123°04'0 0.0
2014-Oct-24 19:34N 49°17' W 123°04'0 0.0
2014-Oct-24 18:34N 49°17' W 123°04'0 0.0
2014-Oct-24 17:34N 49°17' W 123°04'0 0.0
2014-Oct-24 16:33N 49°17' W 123°04'0 0.0
2014-Oct-24 15:34N 49°17' W 123°04'3 2.7
2014-Oct-24 14:33N 49°19' W 123°07'3 2.7
2014-Oct-24 13:33N 49°17' W 123°04'0 0.0
2014-Oct-24 12:33N 49°17' W 123°04'0 0.0
2014-Oct-24 11:33N 49°17' W 123°04'0 0.0
2014-Oct-24 10:33N 49°17' W 123°04'0 0.0
2014-Oct-24 09:33N 49°17' W 123°04'0 0.0
2014-Oct-24 08:33N 49°17' W 123°04'1 0.8
2014-Oct-24 07:33N 49°18' W 123°04'1 1.2
2014-Oct-24 06:33N 49°18' W 123°06'2 1.6
2014-Oct-24 05:33N 49°17' W 123°04'0 0.0
2014-Oct-24 04:33N 49°17' W 123°04'0 0.0
2014-Oct-24 03:33N 49°17' W 123°04'0 0.0
2014-Oct-24 02:33N 49°17' W 123°04'0 0.0
2014-Oct-24 01:33N 49°17' W 123°04'0 0.0
2014-Oct-24 00:33N 49°17' W 123°04'0 0.0
2014-Oct-23 23:33N 49°17' W 123°04'0 0.0
2014-Oct-23 22:33N 49°17' W 123°04'0 0.0
2014-Oct-23 21:33N 49°17' W 123°04'0 0.0
2014-Oct-23 20:33N 49°17' W 123°04'0 0.0
2014-Oct-23 19:33N 49°17' W 123°04'0 0.0
2014-Oct-23 18:33N 49°17' W 123°04'0 0.0
2014-Oct-23 17:33N 49°17' W 123°04'0 0.0
2014-Oct-23 16:33N 49°17' W 123°04'0 0.0
2014-Oct-23 15:33N 49°17' W 123°04'0 0.0
2014-Oct-23 14:33N 49°17' W 123°04'0 0.0
2014-Oct-23 13:33N 49°17' W 123°04'0 0.0
2014-Oct-23 12:33N 49°17' W 123°04'0 0.0
2014-Oct-23 11:33N 49°17' W 123°04'0 0.0
2014-Oct-23 10:33N 49°17' W 123°04'0 0.0
2014-Oct-23 09:33N 49°17' W 123°04'0 0.0
2014-Oct-23 08:33N 49°17' W 123°04'0 0.0
2014-Oct-23 07:33N 49°17' W 123°04'0 0.0
2014-Oct-23 06:33N 49°17' W 123°04'0 0.0
2014-Oct-23 05:33N 49°17' W 123°04'1 0.5
2014-Oct-23 04:33N 49°17' W 123°04'1 0.7
2014-Oct-23 03:33N 49°17' W 123°06'0 0.2
2014-Oct-23 02:33N 49°17' W 123°06'1 0.7
2014-Oct-23 01:33N 49°18' W 123°06'2 1.8
2014-Oct-23 00:33N 49°17' W 123°04'0 0.0
2014-Oct-22 23:34N 49°17' W 123°04'0 0.0
2014-Oct-22 22:33N 49°17' W 123°04'0 0.0
2014-Oct-22 21:33N 49°17' W 123°04'0 0.0
2014-Oct-22 20:33N 49°17' W 123°04'0 0.0
2014-Oct-22 19:33N 49°17' W 123°04'0 0.3
2014-Oct-22 18:33N 49°18' W 123°04'0 0.3
2014-Oct-22 17:33N 49°17' W 123°04'0 0.0
2014-Oct-22 16:33N 49°17' W 123°04'0 0.0
2014-Oct-22 15:33N 49°17' W 123°04'1 1.1
2014-Oct-22 14:33N 49°17' W 123°05'2 1.6
2014-Oct-22 13:33N 49°19' W 123°07'2 1.6
2014-Oct-22 12:33N 49°18' W 123°05'1 1.1
2014-Oct-22 11:33N 49°17' W 123°04'0 0.0
2014-Oct-22 10:33N 49°17' W 123°04'0 0.0
2014-Oct-22 09:33N 49°17' W 123°04'0 0.0
2014-Oct-22 08:33N 49°17' W 123°04'0 0.0
2014-Oct-22 07:33N 49°17' W 123°04'0 0.0
2014-Oct-22 06:33N 49°17' W 123°04'0 0.0
2014-Oct-22 05:33N 49°17' W 123°04'0 0.0
2014-Oct-22 04:33N 49°17' W 123°04'0 0.0
2014-Oct-22 03:33N 49°17' W 123°04'0 0.0
2014-Oct-22 02:33N 49°17' W 123°04'0 0.0
2014-Oct-22 01:33N 49°17' W 123°04'0 0.0
2014-Oct-22 00:33N 49°17' W 123°04'1 0.8
2014-Oct-21 23:33N 49°17' W 123°05'1 1.1
2014-Oct-21 22:33N 49°18' W 123°05'0 0.1
2014-Oct-21 21:33N 49°19' W 123°05'1 1.1
2014-Oct-21 20:33N 49°17' W 123°05'0 0.0
2014-Oct-21 19:33N 49°17' W 123°05'1 0.6
2014-Oct-21 18:33N 49°17' W 123°04'0 0.0
2014-Oct-21 17:33N 49°17' W 123°04'0 0.0
2014-Oct-21 16:33N 49°17' W 123°04'0 0.0
2014-Oct-21 15:33N 49°17' W 123°04'0 0.0
2014-Oct-21 14:33N 49°17' W 123°04'0 0.0
2014-Oct-21 13:33N 49°17' W 123°04'0 0.0
2014-Oct-21 12:33N 49°17' W 123°04'0 0.0
2014-Oct-21 11:33N 49°17' W 123°04'0 0.0
2014-Oct-21 10:33N 49°17' W 123°04'0 0.0
2014-Oct-21 09:33N 49°17' W 123°04'0 0.0
2014-Oct-21 08:33N 49°17' W 123°04'0 0.0
2014-Oct-21 07:33N 49°17' W 123°04'0 0.0
2014-Oct-21 06:33N 49°17' W 123°04'0 0.0
2014-Oct-21 05:33N 49°17' W 123°04'0 0.0
2014-Oct-21 04:33N 49°17' W 123°04'0 0.0
2014-Oct-21 03:33N 49°17' W 123°04'0 0.0
2014-Oct-21 02:33N 49°17' W 123°04'0 0.0
2014-Oct-21 01:33N 49°17' W 123°04'0 0.0
2014-Oct-21 00:33N 49°17' W 123°04'0 0.0
2014-Oct-20 23:33N 49°17' W 123°04'0 0.0
2014-Oct-20 22:33N 49°17' W 123°04'0 0.0
2014-Oct-20 21:33N 49°17' W 123°04'0 0.0
2014-Oct-20 20:33N 49°17' W 123°04'0 0.0
2014-Oct-20 19:33N 49°17' W 123°04'1 0.9
2014-Oct-20 18:33N 49°18' W 123°03'1 0.9
2014-Oct-20 17:33N 49°17' W 123°04'0 0.0
2014-Oct-20 16:33N 49°17' W 123°04'0 0.0
2014-Oct-20 15:33N 49°17' W 123°04'0 0.0
2014-Oct-20 14:33N 49°17' W 123°04'0 0.0
2014-Oct-20 13:33N 49°17' W 123°04'0 0.0
2014-Oct-20 12:33N 49°17' W 123°04'0 0.0
2014-Oct-20 11:33N 49°17' W 123°04'0 0.0
2014-Oct-20 10:33N 49°17' W 123°04'0 0.0
2014-Oct-20 09:33N 49°17' W 123°04'0 0.0
2014-Oct-20 08:33N 49°17' W 123°04'0 0.0
2014-Oct-20 07:33N 49°17' W 123°04'0 0.0
2014-Oct-20 06:33N 49°17' W 123°04'1 0.5
2014-Oct-20 05:33N 49°18' W 123°03'1 0.5
2014-Oct-20 04:33N 49°17' W 123°04'0 0.0
2014-Oct-20 03:33N 49°17' W 123°04'0 0.0
2014-Oct-20 02:33N 49°17' W 123°04'0 0.0
2014-Oct-20 01:33N 49°17' W 123°04'2 2.5
2014-Oct-20 00:33N 49°19' W 123°07'1 1.1
2014-Oct-19 23:33N 49°18' W 123°05'4 4.1
2014-Oct-19 22:34N 49°18' W 122°59'5 4.7
2014-Oct-19 21:33N 49°18' W 122°52'2 2.4
2014-Oct-19 20:33N 49°18' W 122°56'5 5.2
2014-Oct-19 19:33N 49°17' W 123°04'0 0.0
2014-Oct-19 18:33N 49°17' W 123°04'0 0.0
2014-Oct-19 17:33N 49°17' W 123°04'0 0.0
2014-Oct-19 16:33N 49°17' W 123°04'0 0.0
2014-Oct-19 15:33N 49°17' W 123°04'0 0.0
2014-Oct-19 14:33N 49°17' W 123°04'0 0.0
2014-Oct-19 13:33N 49°17' W 123°04'1 1.5
2014-Oct-19 12:33N 49°18' W 123°06'1 1.5
2014-Oct-19 11:33N 49°17' W 123°04'0 0.0
2014-Oct-19 10:33N 49°17' W 123°04'0 0.0
2014-Oct-19 09:33N 49°17' W 123°04'0 0.0
2014-Oct-19 08:33N 49°17' W 123°04'0 0.0
2014-Oct-19 07:33N 49°17' W 123°04'0 0.0
2014-Oct-19 06:33N 49°17' W 123°04'0 0.0
2014-Oct-19 05:33N 49°17' W 123°04'1 1.1
2014-Oct-19 04:33N 49°17' W 123°05'2 1.7
2014-Oct-19 03:33N 49°18' W 123°03'1 1.5
2014-Oct-19 02:33N 49°17' W 123°05'1 1.1
2014-Oct-19 01:34N 49°18' W 123°06'1 1.2
2014-Oct-19 00:33N 49°17' W 123°05'0 0.1
2014-Oct-18 23:33N 49°17' W 123°05'1 0.7
2014-Oct-18 22:33N 49°17' W 123°04'0 0.0
2014-Oct-18 21:33N 49°17' W 123°04'0 0.0
2014-Oct-18 20:33N 49°17' W 123°04'0 0.0
2014-Oct-18 19:33N 49°17' W 123°04'0 0.0
2014-Oct-18 18:33N 49°17' W 123°04'0 0.0
2014-Oct-18 17:33N 49°17' W 123°04'0 0.0
2014-Oct-18 16:33N 49°17' W 123°04'0 0.0
2014-Oct-18 15:33N 49°17' W 123°04'0 0.0
2014-Oct-18 14:33N 49°17' W 123°04'0 0.0
2014-Oct-18 13:33N 49°17' W 123°04'0 0.0
2014-Oct-18 12:33N 49°17' W 123°04'0 0.0
2014-Oct-18 11:33N 49°17' W 123°04'0 0.0
2014-Oct-18 10:33N 49°17' W 123°04'1 1.4
2014-Oct-18 09:34N 49°17' W 123°06'1 1.4
2014-Oct-18 08:33N 49°17' W 123°04'0 0.0
2014-Oct-18 07:33N 49°17' W 123°04'0 0.0
2014-Oct-18 06:34N 49°17' W 123°04'0 0.0
2014-Oct-18 05:33N 49°17' W 123°04'0 0.0
2014-Oct-18 04:33N 49°17' W 123°04'0 0.0
2014-Oct-18 03:33N 49°17' W 123°04'0 0.0
2014-Oct-18 02:33N 49°17' W 123°04'0 0.0
2014-Oct-18 01:34N 49°17' W 123°04'2 2.0
2014-Oct-18 00:33N 49°18' W 123°06'0 0.4
2014-Oct-17 23:33N 49°18' W 123°07'0 0.0
2014-Oct-17 22:33N 49°18' W 123°07'2 1.7
2014-Oct-17 21:33N 49°17' W 123°05'1 0.8
2014-Oct-17 20:33N 49°17' W 123°04'0 0.0
2014-Oct-17 19:33N 49°17' W 123°04'0 0.0
2014-Oct-17 18:33N 49°17' W 123°04'0 0.0
2014-Oct-17 17:33N 49°17' W 123°04'0 0.0
2014-Oct-17 16:33N 49°17' W 123°04'0 0.0
2014-Oct-17 15:33N 49°17' W 123°04'0 0.0
2014-Oct-17 14:33N 49°17' W 123°04'0 0.0
2014-Oct-17 13:33N 49°17' W 123°04'0 0.0
2014-Oct-17 12:33N 49°17' W 123°04'0 0.0
2014-Oct-17 11:33N 49°17' W 123°04'0 0.0
2014-Oct-17 10:33N 49°17' W 123°04'0 0.0
2014-Oct-17 09:33N 49°17' W 123°04'0 0.0
2014-Oct-17 08:33N 49°17' W 123°04'0 0.0
2014-Oct-17 07:33N 49°17' W 123°04'0 0.0
2014-Oct-17 06:33N 49°17' W 123°04'4 4.0
2014-Oct-17 05:33N 49°19' W 123°09'8 7.6
2014-Oct-17 04:33N 49°24' W 123°18'1110.5
2014-Oct-17 03:33N 49°35' W 123°15'7 5.2
2014-Oct-17 02:14N 49°41' W 123°11'0 0.4
2014-Oct-17 01:30N 49°41' W 123°10'0 0.3
2014-Oct-17 00:32N 49°40' W 123°11'8 8.0
2014-Oct-16 23:32N 49°33' W 123°16'1111.6
2014-Oct-16 22:33N 49°22' W 123°18'1010.4
2014-Oct-16 21:33N 49°17' W 123°04'0 0.0
2014-Oct-16 20:33N 49°17' W 123°04'0 0.0
2014-Oct-16 19:33N 49°17' W 123°04'0 0.1
2014-Oct-16 18:33N 49°17' W 123°04'0 0.1
2014-Oct-16 17:34N 49°17' W 123°04'0 0.0
2014-Oct-16 16:33N 49°17' W 123°04'0 0.0
2014-Oct-16 15:34N 49°17' W 123°04'0 0.0
2014-Oct-16 14:33N 49°17' W 123°04'2 2.4
2014-Oct-16 13:33N 49°19' W 123°07'0 0.3
2014-Oct-16 12:33N 49°19' W 123°07'3 2.7
2014-Oct-16 11:33N 49°17' W 123°04'0 0.1
2014-Oct-16 10:33N 49°17' W 123°04'0 0.0
2014-Oct-16 09:33N 49°17' W 123°04'  
Track history (hours):
 
Tides and Currents Weather Stations Pressure Air Temp Water Temp Dewpoint Dewpoint Depression Visibility Wind Speed Wind Dir Waves Ship Positions

Smit Orleans

Last reported at 2014-Oct-26 08:34 UTC. Time now 2014-Oct-26 09:35 UTC.
Position N 49°19' W 123°14'.

Length 29 m; draft 5.1 m.

Type: . MMSI: 316012721.

Date/timePositionNaut miles runAvg speedWind from/ knotsBaromVisibWave heightAir tempDewpointWater temp
2014-Oct-26 08:34N 49°19' W 123°14'9 9.1
2014-Oct-26 07:33N 49°28' W 123°17'1010.4
2014-Oct-26 06:33N 49°39' W 123°14'3 2.4
2014-Oct-26 05:31N 49°40' W 123°11'2 1.9
2014-Oct-26 04:33N 49°39' W 123°14'6 6.5
2014-Oct-26 03:33N 49°33' W 123°16'8 8.5
2014-Oct-26 02:33N 49°25' W 123°18'7 6.8
2014-Oct-26 01:33N 49°19' W 123°11'5 5.3
2014-Oct-26 00:34N 49°17' W 123°04'0 0.0
2014-Oct-25 23:34N 49°17' W 123°04'0 0.0
2014-Oct-25 22:33N 49°17' W 123°04'0 0.0
2014-Oct-25 21:33N 49°17' W 123°04'0 0.0
2014-Oct-25 20:34N 49°17' W 123°04'0 0.0
2014-Oct-25 19:33N 49°17' W 123°04'0 0.0
2014-Oct-25 18:34N 49°17' W 123°04'0 0.0
2014-Oct-25 17:34N 49°17' W 123°04'0 0.0
2014-Oct-25 16:33N 49°17' W 123°04'0 0.0
2014-Oct-25 15:34N 49°17' W 123°04'0 0.0
2014-Oct-25 14:33N 49°17' W 123°04'0 0.0
2014-Oct-25 13:33N 49°17' W 123°04'0 0.0
2014-Oct-25 12:33N 49°17' W 123°04'0 0.0
2014-Oct-25 11:33N 49°17' W 123°04'0 0.0
2014-Oct-25 10:34N 49°17' W 123°04'1 1.1
2014-Oct-25 09:33N 49°18' W 123°02'1 0.6
2014-Oct-25 08:34N 49°18' W 123°03'2 1.7
2014-Oct-25 07:34N 49°18' W 123°05'1 0.9
2014-Oct-25 06:34N 49°17' W 123°04'2 1.6
2014-Oct-25 05:34N 49°18' W 123°07'2 2.0
2014-Oct-25 04:34N 49°17' W 123°04'0 0.0
2014-Oct-25 03:34N 49°17' W 123°04'0 0.0
2014-Oct-25 02:34N 49°17' W 123°04'0 0.0
2014-Oct-25 01:33N 49°17' W 123°04'2 2.2
2014-Oct-25 00:34N 49°18' W 123°00'2 2.2
2014-Oct-24 23:34N 49°17' W 123°04'0 0.0
2014-Oct-24 22:33N 49°17' W 123°04'0 0.0
2014-Oct-24 21:34N 49°17' W 123°04'0 0.0
2014-Oct-24 20:34N 49°17' W 123°04'0 0.0
2014-Oct-24 19:34N 49°17' W 123°04'0 0.0
2014-Oct-24 18:34N 49°17' W 123°04'0 0.0
2014-Oct-24 17:34N 49°17' W 123°04'0 0.0
2014-Oct-24 16:33N 49°17' W 123°04'0 0.0
2014-Oct-24 15:34N 49°17' W 123°04'3 2.7
2014-Oct-24 14:33N 49°19' W 123°07'3 2.7
2014-Oct-24 13:33N 49°17' W 123°04'0 0.0
2014-Oct-24 12:33N 49°17' W 123°04'0 0.0
2014-Oct-24 11:33N 49°17' W 123°04'0 0.0
2014-Oct-24 10:33N 49°17' W 123°04'0 0.0
2014-Oct-24 09:33N 49°17' W 123°04'0 0.0
2014-Oct-24 08:33N 49°17' W 123°04'1 0.8
2014-Oct-24 07:33N 49°18' W 123°04'1 1.2
2014-Oct-24 06:33N 49°18' W 123°06'2 1.6
2014-Oct-24 05:33N 49°17' W 123°04'0 0.0
2014-Oct-24 04:33N 49°17' W 123°04'0 0.0
2014-Oct-24 03:33N 49°17' W 123°04'0 0.0
2014-Oct-24 02:33N 49°17' W 123°04'0 0.0
2014-Oct-24 01:33N 49°17' W 123°04'0 0.0
2014-Oct-24 00:33N 49°17' W 123°04'0 0.0
2014-Oct-23 23:33N 49°17' W 123°04'0 0.0
2014-Oct-23 22:33N 49°17' W 123°04'0 0.0
2014-Oct-23 21:33N 49°17' W 123°04'0 0.0
2014-Oct-23 20:33N 49°17' W 123°04'0 0.0
2014-Oct-23 19:33N 49°17' W 123°04'0 0.0
2014-Oct-23 18:33N 49°17' W 123°04'0 0.0
2014-Oct-23 17:33N 49°17' W 123°04'0 0.0
2014-Oct-23 16:33N 49°17' W 123°04'0 0.0
2014-Oct-23 15:33N 49°17' W 123°04'0 0.0
2014-Oct-23 14:33N 49°17' W 123°04'0 0.0
2014-Oct-23 13:33N 49°17' W 123°04'0 0.0
2014-Oct-23 12:33N 49°17' W 123°04'0 0.0
2014-Oct-23 11:33N 49°17' W 123°04'0 0.0
2014-Oct-23 10:33N 49°17' W 123°04'0 0.0
2014-Oct-23 09:33N 49°17' W 123°04'0 0.0
2014-Oct-23 08:33N 49°17' W 123°04'0 0.0
2014-Oct-23 07:33N 49°17' W 123°04'0 0.0
2014-Oct-23 06:33N 49°17' W 123°04'0 0.0
2014-Oct-23 05:33N 49°17' W 123°04'1 0.5
2014-Oct-23 04:33N 49°17' W 123°04'1 0.7
2014-Oct-23 03:33N 49°17' W 123°06'0 0.2
2014-Oct-23 02:33N 49°17' W 123°06'1 0.7
2014-Oct-23 01:33N 49°18' W 123°06'2 1.8
2014-Oct-23 00:33N 49°17' W 123°04'0 0.0
2014-Oct-22 23:34N 49°17' W 123°04'0 0.0
2014-Oct-22 22:33N 49°17' W 123°04'0 0.0
2014-Oct-22 21:33N 49°17' W 123°04'0 0.0
2014-Oct-22 20:33N 49°17' W 123°04'0 0.0
2014-Oct-22 19:33N 49°17' W 123°04'0 0.3
2014-Oct-22 18:33N 49°18' W 123°04'0 0.3
2014-Oct-22 17:33N 49°17' W 123°04'0 0.0
2014-Oct-22 16:33N 49°17' W 123°04'0 0.0
2014-Oct-22 15:33N 49°17' W 123°04'1 1.1
2014-Oct-22 14:33N 49°17' W 123°05'2 1.6
2014-Oct-22 13:33N 49°19' W 123°07'2 1.6
2014-Oct-22 12:33N 49°18' W 123°05'1 1.1
2014-Oct-22 11:33N 49°17' W 123°04'0 0.0
2014-Oct-22 10:33N 49°17' W 123°04'0 0.0
2014-Oct-22 09:33N 49°17' W 123°04'0 0.0
2014-Oct-22 08:33N 49°17' W 123°04'0 0.0
2014-Oct-22 07:33N 49°17' W 123°04'0 0.0
2014-Oct-22 06:33N 49°17' W 123°04'0 0.0
2014-Oct-22 05:33N 49°17' W 123°04'0 0.0
2014-Oct-22 04:33N 49°17' W 123°04'0 0.0
2014-Oct-22 03:33N 49°17' W 123°04'0 0.0
2014-Oct-22 02:33N 49°17' W 123°04'0 0.0
2014-Oct-22 01:33N 49°17' W 123°04'0 0.0
2014-Oct-22 00:33N 49°17' W 123°04'1 0.8
2014-Oct-21 23:33N 49°17' W 123°05'1 1.1
2014-Oct-21 22:33N 49°18' W 123°05'0 0.1
2014-Oct-21 21:33N 49°19' W 123°05'1 1.1
2014-Oct-21 20:33N 49°17' W 123°05'0 0.0
2014-Oct-21 19:33N 49°17' W 123°05'1 0.6
2014-Oct-21 18:33N 49°17' W 123°04'0 0.0
2014-Oct-21 17:33N 49°17' W 123°04'0 0.0
2014-Oct-21 16:33N 49°17' W 123°04'0 0.0
2014-Oct-21 15:33N 49°17' W 123°04'0 0.0
2014-Oct-21 14:33N 49°17' W 123°04'0 0.0
2014-Oct-21 13:33N 49°17' W 123°04'0 0.0
2014-Oct-21 12:33N 49°17' W 123°04'0 0.0
2014-Oct-21 11:33N 49°17' W 123°04'0 0.0
2014-Oct-21 10:33N 49°17' W 123°04'0 0.0
2014-Oct-21 09:33N 49°17' W 123°04'0 0.0
2014-Oct-21 08:33N 49°17' W 123°04'0 0.0
2014-Oct-21 07:33N 49°17' W 123°04'0 0.0
2014-Oct-21 06:33N 49°17' W 123°04'0 0.0
2014-Oct-21 05:33N 49°17' W 123°04'0 0.0
2014-Oct-21 04:33N 49°17' W 123°04'0 0.0
2014-Oct-21 03:33N 49°17' W 123°04'0 0.0
2014-Oct-21 02:33N 49°17' W 123°04'0 0.0
2014-Oct-21 01:33N 49°17' W 123°04'0 0.0
2014-Oct-21 00:33N 49°17' W 123°04'0 0.0
2014-Oct-20 23:33N 49°17' W 123°04'0 0.0
2014-Oct-20 22:33N 49°17' W 123°04'0 0.0
2014-Oct-20 21:33N 49°17' W 123°04'0 0.0
2014-Oct-20 20:33N 49°17' W 123°04'0 0.0
2014-Oct-20 19:33N 49°17' W 123°04'1 0.9
2014-Oct-20 18:33N 49°18' W 123°03'1 0.9
2014-Oct-20 17:33N 49°17' W 123°04'0 0.0
2014-Oct-20 16:33N 49°17' W 123°04'0 0.0
2014-Oct-20 15:33N 49°17' W 123°04'0 0.0
2014-Oct-20 14:33N 49°17' W 123°04'0 0.0
2014-Oct-20 13:33N 49°17' W 123°04'0 0.0
2014-Oct-20 12:33N 49°17' W 123°04'0 0.0
2014-Oct-20 11:33N 49°17' W 123°04'0 0.0
2014-Oct-20 10:33N 49°17' W 123°04'0 0.0
2014-Oct-20 09:33N 49°17' W 123°04'0 0.0
2014-Oct-20 08:33N 49°17' W 123°04'0 0.0
2014-Oct-20 07:33N 49°17' W 123°04'0 0.0
2014-Oct-20 06:33N 49°17' W 123°04'1 0.5
2014-Oct-20 05:33N 49°18' W 123°03'1 0.5
2014-Oct-20 04:33N 49°17' W 123°04'0 0.0
2014-Oct-20 03:33N 49°17' W 123°04'0 0.0
2014-Oct-20 02:33N 49°17' W 123°04'0 0.0
2014-Oct-20 01:33N 49°17' W 123°04'2 2.5
2014-Oct-20 00:33N 49°19' W 123°07'1 1.1
2014-Oct-19 23:33N 49°18' W 123°05'4 4.1
2014-Oct-19 22:34N 49°18' W 122°59'5 4.7
2014-Oct-19 21:33N 49°18' W 122°52'2 2.4
2014-Oct-19 20:33N 49°18' W 122°56'5 5.2
2014-Oct-19 19:33N 49°17' W 123°04'0 0.0
2014-Oct-19 18:33N 49°17' W 123°04'0 0.0
2014-Oct-19 17:33N 49°17' W 123°04'0 0.0
2014-Oct-19 16:33N 49°17' W 123°04'0 0.0
2014-Oct-19 15:33N 49°17' W 123°04'0 0.0
2014-Oct-19 14:33N 49°17' W 123°04'0 0.0
2014-Oct-19 13:33N 49°17' W 123°04'1 1.5
2014-Oct-19 12:33N 49°18' W 123°06'1 1.5
2014-Oct-19 11:33N 49°17' W 123°04'0 0.0
2014-Oct-19 10:33N 49°17' W 123°04'0 0.0
2014-Oct-19 09:33N 49°17' W 123°04'0 0.0
2014-Oct-19 08:33N 49°17' W 123°04'0 0.0
2014-Oct-19 07:33N 49°17' W 123°04'0 0.0
2014-Oct-19 06:33N 49°17' W 123°04'0 0.0
2014-Oct-19 05:33N 49°17' W 123°04'1 1.1
2014-Oct-19 04:33N 49°17' W 123°05'2 1.7
2014-Oct-19 03:33N 49°18' W 123°03'1 1.5
2014-Oct-19 02:33N 49°17' W 123°05'1 1.1
2014-Oct-19 01:34N 49°18' W 123°06'1 1.2
2014-Oct-19 00:33N 49°17' W 123°05'0 0.1
2014-Oct-18 23:33N 49°17' W 123°05'1 0.7
2014-Oct-18 22:33N 49°17' W 123°04'0 0.0
2014-Oct-18 21:33N 49°17' W 123°04'0 0.0
2014-Oct-18 20:33N 49°17' W 123°04'0 0.0
2014-Oct-18 19:33N 49°17' W 123°04'0 0.0
2014-Oct-18 18:33N 49°17' W 123°04'0 0.0
2014-Oct-18 17:33N 49°17' W 123°04'0 0.0
2014-Oct-18 16:33N 49°17' W 123°04'0 0.0
2014-Oct-18 15:33N 49°17' W 123°04'0 0.0
2014-Oct-18 14:33N 49°17' W 123°04'0 0.0
2014-Oct-18 13:33N 49°17' W 123°04'0 0.0
2014-Oct-18 12:33N 49°17' W 123°04'0 0.0
2014-Oct-18 11:33N 49°17' W 123°04'0 0.0
2014-Oct-18 10:33N 49°17' W 123°04'1 1.4
2014-Oct-18 09:34N 49°17' W 123°06'1 1.4
2014-Oct-18 08:33N 49°17' W 123°04'0 0.0
2014-Oct-18 07:33N 49°17' W 123°04'0 0.0
2014-Oct-18 06:34N 49°17' W 123°04'0 0.0
2014-Oct-18 05:33N 49°17' W 123°04'0 0.0
2014-Oct-18 04:33N 49°17' W 123°04'0 0.0
2014-Oct-18 03:33N 49°17' W 123°04'0 0.0
2014-Oct-18 02:33N 49°17' W 123°04'0 0.0
2014-Oct-18 01:34N 49°17' W 123°04'2 2.0
2014-Oct-18 00:33N 49°18' W 123°06'0 0.4
2014-Oct-17 23:33N 49°18' W 123°07'0 0.0
2014-Oct-17 22:33N 49°18' W 123°07'2 1.7
2014-Oct-17 21:33N 49°17' W 123°05'1 0.8
2014-Oct-17 20:33N 49°17' W 123°04'0 0.0
2014-Oct-17 19:33N 49°17' W 123°04'0 0.0
2014-Oct-17 18:33N 49°17' W 123°04'0 0.0
2014-Oct-17 17:33N 49°17' W 123°04'0 0.0
2014-Oct-17 16:33N 49°17' W 123°04'0 0.0
2014-Oct-17 15:33N 49°17' W 123°04'0 0.0
2014-Oct-17 14:33N 49°17' W 123°04'0 0.0
2014-Oct-17 13:33N 49°17' W 123°04'0 0.0
2014-Oct-17 12:33N 49°17' W 123°04'0 0.0
2014-Oct-17 11:33N 49°17' W 123°04'0 0.0
2014-Oct-17 10:33N 49°17' W 123°04'0 0.0
2014-Oct-17 09:33N 49°17' W 123°04'0 0.0
2014-Oct-17 08:33N 49°17' W 123°04'0 0.0
2014-Oct-17 07:33N 49°17' W 123°04'0 0.0
2014-Oct-17 06:33N 49°17' W 123°04'4 4.0
2014-Oct-17 05:33N 49°19' W 123°09'8 7.6
2014-Oct-17 04:33N 49°24' W 123°18'1110.5
2014-Oct-17 03:33N 49°35' W 123°15'7 5.2
2014-Oct-17 02:14N 49°41' W 123°11'0 0.4
2014-Oct-17 01:30N 49°41' W 123°10'0 0.3
2014-Oct-17 00:32N 49°40' W 123°11'8 8.0
2014-Oct-16 23:32N 49°33' W 123°16'1111.6
2014-Oct-16 22:33N 49°22' W 123°18'1010.4
2014-Oct-16 21:33N 49°17' W 123°04'0 0.0
2014-Oct-16 20:33N 49°17' W 123°04'0 0.0
2014-Oct-16 19:33N 49°17' W 123°04'0 0.1
2014-Oct-16 18:33N 49°17' W 123°04'0 0.1
2014-Oct-16 17:34N 49°17' W 123°04'0 0.0
2014-Oct-16 16:33N 49°17' W 123°04'0 0.0
2014-Oct-16 15:34N 49°17' W 123°04'0 0.0
2014-Oct-16 14:33N 49°17' W 123°04'2 2.4
2014-Oct-16 13:33N 49°19' W 123°07'0 0.3
2014-Oct-16 12:33N 49°19' W 123°07'3 2.7
2014-Oct-16 11:33N 49°17' W 123°04'0 0.1
2014-Oct-16 10:33N 49°17' W 123°04'0 0.0
2014-Oct-16 09:33N 49°17' W 123°04'  

Dump ship's entire track history